Time;durP1;ratioP1;P1;durP2;ratioP2;P2;SDS_P1;SDS_P2;PMS_P1;PMS_P2;Temp;Humidity;BMP_temperature;BMP_pressure;BME280_temperature;BME280_humidity;BME280_pressure;Samples;Min_cycle;Max_cycle;Signal;HPM_P1;HPM_P2
2021/12/23 00:01:40;;;;;;;19.45;10.25;;;-0.90;99.90;;;;;;5066500;28;20051;-79
2021/12/23 00:04:07;;;;;;;17.73;11.98;;;-0.90;99.90;;;;;;5081325;28;20075;-79
2021/12/23 00:06:32;;;;;;;19.00;11.35;;;-0.90;99.90;;;;;;5064045;28;20097;-79
2021/12/23 00:09:00;;;;;;;16.73;12.80;;;-0.90;99.90;;;;;;5090947;28;20040;-81
2021/12/23 00:11:27;;;;;;;21.13;13.40;;;-0.80;99.90;;;;;;5070799;28;20051;-79
2021/12/23 00:14:04;;;;;;;19.40;11.43;;;-0.80;99.90;;;;;;5078938;28;20061;-78
2021/12/23 00:16:47;;;;;;;19.33;11.45;;;-0.80;99.90;;;;;;5071615;28;20075;-79
2021/12/23 00:24:38;;;;;;;15.82;11.13;;;-0.80;99.90;;;;;;5061712;28;19920;-79
2021/12/23 00:27:04;;;;;;;19.08;11.48;;;-0.70;99.90;;;;;;5083536;28;20505;-77
2021/12/23 00:29:30;;;;;;;16.02;11.63;;;-0.70;99.90;;;;;;5070309;28;20047;-78
2021/12/23 00:31:56;;;;;;;18.38;12.73;;;-0.70;99.90;;;;;;5072754;28;20048;-79
2021/12/23 00:34:22;;;;;;;14.52;11.63;;;-0.70;99.90;;;;;;5069273;28;20127;-79
2021/12/23 00:36:48;;;;;;;21.70;13.57;;;-0.70;99.90;;;;;;5085642;28;20032;-79
2021/12/23 00:39:15;;;;;;;16.17;11.60;;;-0.70;99.90;;;;;;5068204;28;20050;-79
2021/12/23 00:41:43;;;;;;;20.48;12.10;;;-0.70;99.90;;;;;;5080729;28;20037;-79
2021/12/23 00:44:09;;;;;;;18.30;11.77;;;-0.60;99.90;;;;;;5076528;28;20478;-78
2021/12/23 00:46:35;;;;;;;18.27;12.25;;;-0.60;99.90;;;;;;5071198;28;20044;-79
2021/12/23 00:49:00;;;;;;;16.70;12.15;;;-0.70;99.90;;;;;;5069860;28;20498;-78
2021/12/23 00:51:26;;;;;;;18.58;12.98;;;-0.70;99.90;;;;;;5067575;28;20070;-80
2021/12/23 00:53:54;;;;;;;20.77;11.75;;;-0.60;99.90;;;;;;5082329;28;20426;-78
2021/12/23 00:56:20;;;;;;;17.48;12.75;;;-0.70;99.90;;;;;;5052351;28;20047;-77
2021/12/23 00:58:45;;;;;;;15.93;11.00;;;-0.60;99.90;;;;;;5087448;28;20047;-78
2021/12/23 01:01:11;;;;;;;22.63;12.00;;;-0.50;99.90;;;;;;5077391;28;20081;-80
2021/12/23 01:03:37;;;;;;;16.95;10.50;;;-0.60;99.90;;;;;;5069904;28;20036;-80
2021/12/23 01:06:03;;;;;;;16.33;11.50;;;-0.60;99.90;;;;;;5071545;28;20051;-80
2021/12/23 01:08:30;;;;;;;20.00;12.25;;;-0.60;99.90;;;;;;5080834;28;20069;-79
2021/12/23 01:10:59;;;;;;;15.82;10.27;;;-0.50;99.90;;;;;;5054667;28;20041;-80
2021/12/23 01:13:28;;;;;;;15.20;11.30;;;-0.60;99.90;;;;;;5070254;28;21728;-79
2021/12/23 01:16:01;;;;;;;19.02;11.77;;;-0.60;99.90;;;;;;5052994;28;20047;-77
2021/12/23 01:18:43;;;;;;;24.15;12.63;;;-0.60;99.90;;;;;;5088702;28;20051;-78
2021/12/23 01:21:16;;;;;;;25.45;13.52;;;-0.60;99.90;;;;;;5064267;28;20051;-78
2021/12/23 01:23:51;;;;;;;21.45;12.20;;;-0.50;99.90;;;;;;5055316;28;20044;-79
2021/12/23 01:26:20;;;;;;;17.33;11.32;;;-0.60;99.90;;;;;;5076120;28;20079;-78
2021/12/23 01:28:48;;;;;;;22.90;12.77;;;-0.60;99.90;;;;;;5072362;28;20101;-78
2021/12/23 01:31:14;;;;;;;22.02;12.90;;;-0.60;99.90;;;;;;5061247;28;20040;-77
2021/12/23 01:33:40;;;;;;;16.33;11.50;;;-0.70;99.90;;;;;;5061171;28;20041;-79
2021/12/23 01:36:06;;;;;;;17.38;11.57;;;-0.60;99.90;;;;;;5067360;28;20558;-78
2021/12/23 01:38:31;;;;;;;17.42;11.80;;;-0.60;99.90;;;;;;5087494;28;20547;-80
2021/12/23 01:40:57;;;;;;;20.92;12.43;;;-0.60;99.90;;;;;;5078003;28;20052;-79
2021/12/23 01:43:23;;;;;;;22.42;12.40;;;-0.70;99.90;;;;;;5078988;28;20044;-78
2021/12/23 01:45:50;;;;;;;19.77;12.05;;;-0.70;99.90;;;;;;5064044;28;20041;-79
2021/12/23 01:48:17;;;;;;;18.13;12.68;;;-0.80;99.90;;;;;;5080618;28;20051;-78
2021/12/23 01:50:43;;;;;;;20.42;13.73;;;-0.70;99.90;;;;;;5075610;28;20043;-72
2021/12/23 01:53:09;;;;;;;20.67;14.95;;;-0.70;99.90;;;;;;5087142;28;20046;-80
2021/12/23 01:55:35;;;;;;;19.45;13.60;;;-0.70;99.90;;;;;;5086475;28;20587;-80
2021/12/23 01:58:03;;;;;;;19.50;13.40;;;-0.70;99.90;;;;;;5054618;28;20079;-78
2021/12/23 02:00:33;;;;;;;23.80;14.20;;;-0.70;99.90;;;;;;5079010;28;20554;-78
2021/12/23 02:02:59;;;;;;;19.20;12.60;;;-0.60;99.90;;;;;;5079942;28;20580;-78
2021/12/23 02:05:25;;;;;;;16.88;11.35;;;-0.60;99.90;;;;;;5061632;28;20098;-79
2021/12/23 02:07:50;;;;;;;19.48;13.20;;;-0.60;99.90;;;;;;5089195;28;20052;-80
2021/12/23 02:10:16;;;;;;;20.63;13.13;;;-0.70;99.90;;;;;;5087787;28;20044;-79
2021/12/23 02:12:44;;;;;;;19.20;11.32;;;-0.60;99.90;;;;;;5085262;28;20032;-80
2021/12/23 02:15:11;;;;;;;19.23;12.13;;;-0.70;99.90;;;;;;5088690;28;20044;-80
2021/12/23 02:17:38;;;;;;;18.83;12.25;;;-0.70;99.90;;;;;;5085917;28;20055;-79
2021/12/23 02:20:06;;;;;;;19.23;12.75;;;-0.70;99.90;;;;;;5086164;28;20706;-80
2021/12/23 02:22:32;;;;;;;19.75;12.77;;;-0.70;99.90;;;;;;5076150;28;20128;-79
2021/12/23 02:24:57;;;;;;;18.65;11.32;;;-0.70;99.90;;;;;;5083192;28;20068;-80
2021/12/23 02:27:23;;;;;;;24.92;14.63;;;-0.80;99.90;;;;;;5038934;28;20044;-80
2021/12/23 02:29:49;;;;;;;22.05;12.63;;;-0.70;99.90;;;;;;5058781;28;20047;-79
2021/12/23 02:32:14;;;;;;;19.30;12.93;;;-0.70;99.90;;;;;;5070555;28;20071;-72
2021/12/23 02:34:40;;;;;;;18.77;12.80;;;-0.70;99.90;;;;;;5089545;28;20060;-80
2021/12/23 02:37:05;;;;;;;17.13;12.05;;;-0.70;99.90;;;;;;5091074;28;20040;-79
2021/12/23 02:39:31;;;;;;;25.35;13.48;;;-0.70;99.90;;;;;;5089914;28;20364;-79
2021/12/23 02:41:57;;;;;;;18.42;12.45;;;-0.70;99.90;;;;;;5084041;28;20632;-79
2021/12/23 02:44:23;;;;;;;21.27;13.32;;;-0.80;99.90;;;;;;5062618;28;20051;-79
2021/12/23 02:46:48;;;;;;;20.60;13.25;;;-0.70;99.90;;;;;;5084549;28;20064;-78
2021/12/23 02:49:15;;;;;;;19.42;13.35;;;-0.70;99.90;;;;;;5061563;28;20072;-75
2021/12/23 02:51:41;;;;;;;20.77;13.25;;;-0.70;99.90;;;;;;5090044;28;20123;-80
2021/12/23 02:54:06;;;;;;;21.23;13.32;;;-0.70;99.90;;;;;;5084585;28;20558;-81
2021/12/23 02:56:32;;;;;;;17.13;12.75;;;-0.70;99.90;;;;;;5058186;28;20837;-82
2021/12/23 02:58:58;;;;;;;19.40;14.50;;;-0.80;99.90;;;;;;5090395;28;20040;-81
2021/12/23 03:01:25;;;;;;;21.42;13.95;;;-0.70;99.90;;;;;;5079599;28;20531;-80
2021/12/23 03:03:51;;;;;;;19.23;12.48;;;-0.80;99.90;;;;;;5077196;28;20044;-80
2021/12/23 03:06:18;;;;;;;22.27;14.10;;;-0.80;99.90;;;;;;5055734;28;20048;-80
2021/12/23 03:08:50;;;;;;;21.48;15.02;;;-0.70;99.90;;;;;;5091583;28;20040;-80
2021/12/23 03:11:18;;;;;;;23.77;15.07;;;-0.80;99.90;;;;;;5060151;28;20040;-79
2021/12/23 03:13:44;;;;;;;19.52;14.07;;;-0.70;99.90;;;;;;5077579;28;20047;-80
2021/12/23 03:16:14;;;;;;;18.33;13.65;;;-0.80;99.90;;;;;;5071103;28;20082;-80
2021/12/23 03:18:40;;;;;;;;;;;-0.70;99.90;;;;;;5079965;28;20051;-80
2021/12/23 03:21:05;;;;;;;;;;;-0.80;99.90;;;;;;5076032;28;19921;-80
2021/12/23 03:23:32;;;;;;;;;;;-0.80;99.90;;;;;;5066597;28;20325;-79
2021/12/23 03:25:58;;;;;;;;;;;-0.70;99.90;;;;;;5070843;28;19920;-79
2021/12/23 03:28:24;;;;;;;;;;;-0.70;99.90;;;;;;5089781;28;19924;-80
2021/12/23 03:30:49;;;;;;;;;;;-0.60;99.90;;;;;;5069280;28;20026;-80
2021/12/23 03:33:15;;;;;;;;;;;-0.70;99.90;;;;;;5083674;28;19920;-79
2021/12/23 03:35:41;;;;;;;;;;;-0.60;99.90;;;;;;5082732;28;19920;-81
2021/12/23 03:38:06;;;;;;;;;;;-0.60;99.90;;;;;;5071015;28;19924;-78
2021/12/23 03:40:32;;;;;;;;;;;-0.60;99.90;;;;;;5071417;28;19923;-79
2021/12/23 03:42:57;;;;;;;;;;;-0.50;99.90;;;;;;5083566;28;19936;-80
2021/12/23 03:45:23;;;;;;;;;;;-0.60;99.90;;;;;;5077171;28;20144;-80
2021/12/23 03:47:50;;;;;;;;;;;-0.50;99.90;;;;;;5086028;28;19927;-80
2021/12/23 03:50:20;;;;;;;;;;;-0.50;99.90;;;;;;5064957;28;19927;-81
2021/12/23 03:52:46;;;;;;;;;;;-0.40;99.90;;;;;;5073231;28;19920;-80
2021/12/23 03:55:12;;;;;;;;;;;-0.50;99.90;;;;;;5086237;28;19943;-80
2021/12/23 03:57:38;;;;;;;;;;;-0.50;99.90;;;;;;5042520;28;20432;-80
2021/12/23 04:00:05;;;;;;;;;;;-0.50;99.90;;;;;;5077041;28;20074;-80
2021/12/23 04:02:31;;;;;;;;;;;-0.40;99.90;;;;;;5075372;28;19960;-80
2021/12/23 04:04:56;;;;;;;;;;;-0.40;99.90;;;;;;5061559;28;19947;-79
2021/12/23 04:07:22;;;;;;;;;;;-0.40;99.90;;;;;;5090337;28;20387;-81
2021/12/23 04:09:47;;;;;;;;;;;-0.50;99.90;;;;;;5086397;28;19964;-80
2021/12/23 04:12:13;;;;;;;;;;;-0.40;99.90;;;;;;5063553;28;19923;-76
2021/12/23 04:14:38;;;;;;;;;;;-0.40;99.90;;;;;;5084059;28;19991;-81
2021/12/23 04:17:04;;;;;;;;;;;-0.40;99.90;;;;;;5062485;28;20534;-81
2021/12/23 04:19:31;;;;;;;;;;;-0.40;99.90;;;;;;5048562;28;19921;-80
2021/12/23 04:21:57;;;;;;;;;;;-0.40;99.90;;;;;;5058745;28;20043;-79
2021/12/23 04:24:23;;;;;;;;;;;-0.30;99.90;;;;;;5066655;28;20007;-79
2021/12/23 04:26:48;;;;;;;;;;;-0.40;99.90;;;;;;5056947;28;19920;-79
2021/12/23 04:29:14;;;;;;;;;;;-0.40;99.90;;;;;;5048185;28;19944;-77
2021/12/23 04:31:39;;;;;;;;;;;-0.40;99.90;;;;;;5051772;28;20011;-80
2021/12/23 04:34:04;;;;;;;;;;;-0.30;99.90;;;;;;5064093;28;19920;-81
2021/12/23 04:36:30;;;;;;;;;;;-0.40;99.90;;;;;;5062020;28;19928;-81
2021/12/23 04:38:58;;;;;;;;;;;-0.40;99.90;;;;;;5061275;28;19928;-80
2021/12/23 04:41:24;;;;;;;;;;;-0.40;99.90;;;;;;5059458;28;20006;-79
2021/12/23 04:43:50;;;;;;;;;;;-0.40;99.90;;;;;;5057058;28;19928;-80
2021/12/23 04:46:15;;;;;;;;;;;-0.40;99.90;;;;;;5057543;28;20444;-80
2021/12/23 04:48:40;;;;;;;;;;;-0.40;99.90;;;;;;5058929;28;19920;-80
2021/12/23 04:51:06;;;;;;;;;;;-0.40;99.90;;;;;;5056370;28;19921;-80
2021/12/23 04:53:32;;;;;;;;;;;-0.30;99.90;;;;;;5062437;28;20014;-79
2021/12/23 04:55:57;;;;;;;;;;;-0.40;99.90;;;;;;5056988;28;19925;-80
2021/12/23 04:58:23;;;;;;;;;;;-0.40;99.90;;;;;;5058957;28;20362;-81
2021/12/23 05:00:50;;;;;;;;;;;-0.40;99.90;;;;;;5054649;28;19935;-79
2021/12/23 05:03:16;;;;;;;;;;;-0.40;99.90;;;;;;5048341;28;19966;-78
2021/12/23 05:05:42;;;;;;;;;;;-0.30;99.90;;;;;;5056240;28;19994;-80
2021/12/23 05:08:08;;;;;;;;;;;-0.30;99.90;;;;;;5068228;28;20386;-80
2021/12/23 05:10:33;;;;;;;;;;;-0.30;99.90;;;;;;5065822;28;19924;-80
2021/12/23 05:12:59;;;;;;;;;;;-0.30;99.90;;;;;;5053952;28;20801;-79
2021/12/23 05:15:24;;;;;;;;;;;-0.30;99.90;;;;;;5059514;28;19927;-80
2021/12/23 05:17:50;;;;;;;;;;;-0.40;99.90;;;;;;5079333;28;19964;-80
2021/12/23 05:20:16;;;;;;;;;;;-0.30;99.90;;;;;;5081849;28;22281;-80
2021/12/23 05:22:42;;;;;;;;;;;-0.40;99.90;;;;;;5070287;28;19921;-81
2021/12/23 05:25:08;;;;;;;;;;;-0.30;99.90;;;;;;5083624;28;19927;-79
2021/12/23 05:27:34;;;;;;;;;;;-0.40;99.90;;;;;;5092876;28;20436;-79
2021/12/23 05:30:01;;;;;;;;;;;-0.30;99.90;;;;;;5067965;28;19920;-81
2021/12/23 05:32:27;;;;;;;;;;;-0.30;99.90;;;;;;5081499;28;19920;-80
2021/12/23 05:34:52;;;;;;;;;;;-0.30;99.90;;;;;;5057408;28;20023;-81
2021/12/23 05:37:18;;;;;;;;;;;-0.20;99.90;;;;;;5085221;28;19927;-78
2021/12/23 05:39:43;;;;;;;;;;;-0.20;99.90;;;;;;5071292;28;19929;-78
2021/12/23 05:42:09;;;;;;;;;;;-0.20;99.90;;;;;;5072723;28;19920;-78
2021/12/23 05:44:34;;;;;;;;;;;-0.20;99.90;;;;;;5053103;28;19932;-79
2021/12/23 05:47:00;;;;;;;;;;;-0.20;99.90;;;;;;5074202;28;19943;-79
2021/12/23 05:49:26;;;;;;;;;;;-0.20;99.90;;;;;;5070642;28;20285;-78
2021/12/23 05:51:51;;;;;;;;;;;-0.20;99.90;;;;;;5086129;28;19927;-78
2021/12/23 05:54:17;;;;;;;;;;;-0.20;99.90;;;;;;5059301;28;19921;-78
2021/12/23 05:56:42;;;;;;;;;;;-0.10;99.90;;;;;;5063806;28;19921;-74
2021/12/23 05:59:07;;;;;;;;;;;-0.10;99.90;;;;;;5070994;28;19923;-79
2021/12/23 06:01:33;;;;;;;;;;;-0.10;99.90;;;;;;5057703;28;20313;-79
2021/12/23 06:03:59;;;;;;;;;;;-0.10;99.90;;;;;;5050537;28;19974;-78
2021/12/23 06:06:24;;;;;;;;;;;-0.20;99.90;;;;;;5051612;28;20408;-78
2021/12/23 06:08:49;;;;;;;;;;;-0.10;99.90;;;;;;5053393;28;19924;-79
2021/12/23 06:11:15;;;;;;;;;;;-0.10;99.90;;;;;;5085387;28;19989;-79
2021/12/23 06:13:41;;;;;;;;;;;-0.10;99.90;;;;;;5079604;28;20373;-79
2021/12/23 06:16:06;;;;;;;;;;;-0.10;99.90;;;;;;5067943;28;19928;-77
2021/12/23 06:18:32;;;;;;;;;;;0.00;99.90;;;;;;5067568;28;19924;-79
2021/12/23 06:20:57;;;;;;;;;;;-0.10;99.90;;;;;;5079773;28;20370;-79
2021/12/23 06:23:25;;;;;;;;;;;0.00;99.90;;;;;;5069275;28;20006;-80
2021/12/23 06:25:51;;;;;;;;;;;-0.10;99.90;;;;;;5078451;28;19920;-80
2021/12/23 06:28:16;;;;;;;;;;;0.00;99.90;;;;;;5073879;28;19966;-80
2021/12/23 06:30:42;;;;;;;;;;;-0.10;99.90;;;;;;5075817;28;19920;-78
2021/12/23 06:33:07;;;;;;;;;;;-0.10;99.90;;;;;;5068115;28;19921;-80
2021/12/23 06:35:33;;;;;;;;;;;-0.10;99.90;;;;;;5073291;28;19931;-78
2021/12/23 06:38:01;;;;;;;;;;;-0.10;99.90;;;;;;5070372;28;19920;-79
2021/12/23 06:40:27;;;;;;;;;;;-0.10;99.90;;;;;;5072395;28;19964;-82
2021/12/23 06:42:52;;;;;;;;;;;-0.10;99.90;;;;;;5079218;28;19967;-80
2021/12/23 06:45:18;;;;;;;;;;;-0.10;99.90;;;;;;5065322;28;19924;-79
2021/12/23 06:47:44;;;;;;;;;;;0.00;99.90;;;;;;5069010;28;19928;-79
2021/12/23 06:50:10;;;;;;;;;;;0.00;99.90;;;;;;5066985;28;20366;-80
2021/12/23 06:52:37;;;;;;;;;;;0.00;99.90;;;;;;5053837;28;19927;-82
2021/12/23 06:55:03;;;;;;;;;;;0.00;99.90;;;;;;5075215;28;19990;-79
2021/12/23 06:57:29;;;;;;;;;;;0.00;99.90;;;;;;5091197;28;20208;-80
2021/12/23 06:59:55;;;;;;;;;;;0.00;99.90;;;;;;5089733;28;19926;-81
2021/12/23 07:02:21;;;;;;;;;;;0.00;99.90;;;;;;5070815;28;20325;-79
2021/12/23 07:04:46;;;;;;;;;;;0.00;99.90;;;;;;5059815;28;20367;-80
2021/12/23 07:07:19;;;;;;;;;;;0.00;99.90;;;;;;5062424;28;19965;-80
2021/12/23 07:09:45;;;;;;;;;;;0.00;99.90;;;;;;5085812;28;19945;-80
2021/12/23 07:12:11;;;;;;;;;;;0.00;99.90;;;;;;5065146;28;19920;-82
2021/12/23 07:14:37;;;;;;;;;;;0.00;99.90;;;;;;5064773;28;20055;-81
2021/12/23 07:17:03;;;;;;;;;;;0.00;99.90;;;;;;5091418;28;20010;-79
2021/12/23 07:19:29;;;;;;;;;;;0.00;99.90;;;;;;5072152;28;20002;-81
2021/12/23 07:21:54;;;;;;;;;;;0.00;99.90;;;;;;5043608;28;20050;-81
2021/12/23 07:24:20;;;;;;;;;;;0.00;99.90;;;;;;5086107;28;20014;-80
2021/12/23 07:26:46;;;;;;;;;;;-0.10;99.90;;;;;;5076737;28;19932;-79
2021/12/23 07:29:12;;;;;;;;;;;0.00;99.90;;;;;;5072305;28;20378;-78
2021/12/23 07:31:37;;;;;;;;;;;0.00;99.90;;;;;;5090288;28;20382;-79
2021/12/23 07:34:03;;;;;;;;;;;-0.10;99.90;;;;;;5090811;28;20014;-80
2021/12/23 07:36:28;;;;;;;;;;;-0.10;99.90;;;;;;5089116;28;19920;-79
2021/12/23 07:38:55;;;;;;;;;;;-0.10;99.90;;;;;;5073889;28;19920;-79
2021/12/23 07:41:21;;;;;;;;;;;-0.10;99.90;;;;;;5059980;28;19921;-78
2021/12/23 07:43:57;;;;;;;;;;;-0.10;99.90;;;;;;5074608;28;20294;-78
2021/12/23 07:46:24;;;;;;;;;;;-0.10;99.90;;;;;;5092813;28;20414;-80
2021/12/23 07:48:50;;;;;;;;;;;-0.10;99.90;;;;;;5086752;28;20282;-80
2021/12/23 07:51:15;;;;;;;;;;;-0.10;99.90;;;;;;5084112;28;19920;-80
2021/12/23 07:53:41;;;;;;;;;;;-0.10;99.90;;;;;;5089308;28;20380;-81
2021/12/23 07:56:06;;;;;;;;;;;-0.10;99.90;;;;;;5072251;28;19935;-78
2021/12/23 07:58:32;;;;;;;;;;;-0.20;99.90;;;;;;5059034;28;19931;-83
2021/12/23 08:00:57;;;;;;;;;;;-0.10;99.90;;;;;;5076570;28;20427;-79
2021/12/23 08:03:23;;;;;;;;;;;-0.10;99.90;;;;;;5072024;28;19978;-79
2021/12/23 08:05:49;;;;;;;;;;;-0.10;99.90;;;;;;5061908;28;19920;-80
2021/12/23 08:08:15;;;;;;;;;;;-0.10;99.90;;;;;;5055545;28;19920;-76
2021/12/23 08:10:40;;;;;;;;;;;-0.10;99.90;;;;;;5087113;28;19920;-78
2021/12/23 08:13:07;;;;;;;;;;;-0.20;99.90;;;;;;5088860;28;19923;-80
2021/12/23 08:15:33;;;;;;;;;;;-0.10;99.90;;;;;;5064486;28;20014;-82
2021/12/23 08:17:58;;;;;;;;;;;-0.10;99.90;;;;;;5052056;28;20024;-80
2021/12/23 08:20:24;;;;;;;;;;;-0.10;99.90;;;;;;5062998;28;19967;-81
2021/12/23 08:22:49;;;;;;;;;;;-0.10;99.90;;;;;;5091250;28;20004;-85
2021/12/23 08:25:15;;;;;;;;;;;-0.10;99.90;;;;;;5090665;28;19962;-81
2021/12/23 08:27:41;;;;;;;;;;;-0.10;99.90;;;;;;5069704;28;20419;-81
2021/12/23 08:30:08;;;;;;;;;;;-0.10;99.90;;;;;;5061803;28;19927;-83
2021/12/23 08:32:34;;;;;;;;;;;-0.10;99.90;;;;;;5071477;28;19928;-82
2021/12/23 08:35:00;;;;;;;;;;;-0.10;99.90;;;;;;5090054;28;20419;-82
2021/12/23 08:37:25;;;;;;;;;;;-0.20;99.90;;;;;;5090371;28;19920;-84
2021/12/23 08:39:52;;;;;;;;;;;-0.10;99.90;;;;;;5069426;28;19924;-83
2021/12/23 08:42:17;;;;;;;;;;;-0.20;99.90;;;;;;5056266;28;20005;-78
2021/12/23 08:44:43;;;;;;;;;;;-0.10;99.90;;;;;;5076445;28;19981;-75
2021/12/23 08:47:09;;;;;;;;;;;-0.10;99.90;;;;;;5081525;28;19943;-78
2021/12/23 08:49:35;;;;;;;;;;;-0.20;99.90;;;;;;5037911;28;19924;-78
2021/12/23 08:52:00;;;;;;;;;;;0.10;99.90;;;;;;5088851;28;19927;-77
2021/12/23 08:54:26;;;;;;;;;;;0.00;99.90;;;;;;5041185;28;19924;-77
2021/12/23 08:56:51;;;;;;;;;;;0.00;99.90;;;;;;5081502;28;20405;-77
2021/12/23 08:59:18;;;;;;;;;;;0.00;99.90;;;;;;5071532;28;20047;-75
2021/12/23 09:01:45;;;;;;;;;;;-0.10;99.90;;;;;;5082186;28;19920;-78
2021/12/23 09:04:10;;;;;;;;;;;-0.10;99.90;;;;;;5082277;28;19924;-78
2021/12/23 09:06:36;;;;;;;;;;;-0.20;99.90;;;;;;5062435;28;19993;-78
2021/12/23 09:09:02;;;;;;;;;;;-0.20;99.90;;;;;;5075757;28;19966;-74
2021/12/23 09:11:27;;;;;;;;;;;-0.10;99.90;;;;;;5069649;28;19920;-78
2021/12/23 09:13:53;;;;;;;;;;;-0.10;99.90;;;;;;5087921;28;19990;-77
2021/12/23 09:16:18;;;;;;;;;;;0.00;99.90;;;;;;5055618;28;19935;-78
2021/12/23 09:18:44;;;;;;;;;;;0.00;99.90;;;;;;5071803;28;19920;-85
2021/12/23 09:21:12;;;;;;;;;;;-0.10;99.90;;;;;;5080296;28;20696;-85
2021/12/23 09:23:38;;;;;;;;;;;-0.10;99.90;;;;;;5053642;28;19926;-82
2021/12/23 09:26:09;;;;;;;;;;;0.00;99.90;;;;;;5088008;28;20046;-83
2021/12/23 09:28:53;;;;;;;;;;;0.10;99.90;;;;;;5072079;28;20451;-82
2021/12/23 09:34:04;;;;;;;;;;;0.00;99.90;;;;;;5060994;28;19951;-81
2021/12/23 09:36:29;;;;;;;;;;;0.10;99.90;;;;;;5081042;28;20350;-81
2021/12/23 09:38:55;;;;;;;;;;;0.10;99.90;;;;;;5076444;28;20298;-82
2021/12/23 09:41:21;;;;;;;;;;;0.00;99.90;;;;;;5070673;28;19920;-84
2021/12/23 09:43:47;;;;;;;;;;;0.00;99.90;;;;;;5063014;28;19920;-81
2021/12/23 09:46:13;;;;;;;;;;;0.20;99.90;;;;;;5062671;28;20386;-72
2021/12/23 09:48:42;;;;;;;;;;;0.00;99.90;;;;;;5083096;28;20309;-83
2021/12/23 09:51:08;;;;;;;;;;;0.00;99.90;;;;;;5069121;28;20294;-81
2021/12/23 09:53:35;;;;;;;;;;;0.00;99.90;;;;;;5066767;28;19931;-80
2021/12/23 09:56:00;;;;;;;;;;;0.20;99.90;;;;;;5058414;28;19927;-81
2021/12/23 09:58:26;;;;;;;;;;;0.20;99.90;;;;;;5088665;28;19920;-81
2021/12/23 10:00:53;;;;;;;;;;;0.20;99.90;;;;;;5067045;28;19920;-81
2021/12/23 10:03:19;;;;;;;;;;;0.10;99.90;;;;;;5056000;28;19920;-80
2021/12/23 10:05:45;;;;;;;;;;;0.20;99.90;;;;;;5086096;28;20393;-80
2021/12/23 10:08:12;;;;;;;;;;;0.10;99.90;;;;;;5088963;28;19973;-80
2021/12/23 10:26:55;;;;;;;;;;;0.10;99.90;;;;;;5057522;28;20022;-73
2021/12/23 10:27:34;;;;;;;;;;;0.30;99.90;;;;;;5085458;28;19920;-82
2021/12/23 10:38:06;;;;;;;;;;;0.40;99.90;;;;;;5089651;28;20313;-78
2021/12/23 10:40:32;;;;;;;;;;;0.20;99.90;;;;;;5102326;28;19920;-80
2021/12/23 10:42:57;;;;;;;;;;;0.30;99.90;;;;;;5089028;28;20005;-78
2021/12/23 10:45:23;;;;;;;;;;;0.30;99.90;;;;;;5095445;28;20332;-80
2021/12/23 10:48:02;;;;;;;;;;;0.10;99.90;;;;;;5087129;28;19925;-81
2021/12/23 10:53:02;;;;;;;;;;;0.20;99.90;;;;;;5069630;28;20297;-79
2021/12/23 10:58:23;;;;;;;;;;;0.30;99.90;;;;;;5000499;28;19925;-79
2021/12/23 11:00:50;;;;;;;;;;;0.30;99.90;;;;;;5054548;28;19944;-79
2021/12/23 11:05:53;;;;;;;;;;;0.40;99.90;;;;;;5079196;28;20413;-82
2021/12/23 11:30:56;;;;;;;;;;;0.20;99.90;;;;;;5084599;28;20294;-80
2021/12/23 11:38:58;;;;;;;;;;;0.30;99.90;;;;;;5072650;28;20019;-82
2021/12/23 11:43:57;;;;;;;;;;;0.30;99.90;;;;;;5076825;28;19920;-80
2021/12/23 11:46:39;;;;;;;;;;;0.40;99.90;;;;;;5053722;28;19920;-81
2021/12/23 11:49:08;;;;;;;;;;;0.30;99.90;;;;;;5036113;28;19920;-81
2021/12/23 11:54:06;;;;;;;;;;;0.50;99.90;;;;;;5053866;28;19973;-81
2021/12/23 11:56:35;;;;;;;;;;;0.50;99.90;;;;;;5066415;28;19921;-82
2021/12/23 11:59:02;;;;;;;;;;;0.40;99.90;;;;;;5058697;28;19927;-82
2021/12/23 12:01:29;;;;;;;;;;;0.50;99.90;;;;;;5060071;28;19920;-78
2021/12/23 12:03:54;;;;;;;;;;;0.60;99.90;;;;;;5087915;28;19920;-80
2021/12/23 12:06:25;;;;;;;;;;;0.50;99.90;;;;;;5071185;28;19920;-84
2021/12/23 12:09:13;;;;;;;;;;;0.60;99.90;;;;;;5058623;28;19965;-85
2021/12/23 12:11:39;;;;;;;;;;;0.70;99.90;;;;;;5053150;28;19920;-83
2021/12/23 12:14:25;;;;;;;;;;;0.70;99.90;;;;;;5078448;28;19924;-84
2021/12/23 12:16:50;;;;;;;;;;;0.60;99.90;;;;;;5085625;28;19920;-84
2021/12/23 12:19:16;;;;;;;;;;;0.70;99.90;;;;;;5082688;28;20382;-85
2021/12/23 12:21:42;;;;;;;;;;;0.80;99.90;;;;;;5091846;28;19924;-84
2021/12/23 12:24:07;;;;;;;;;;;0.60;99.90;;;;;;5090092;28;19974;-83
2021/12/23 12:26:35;;;;;;;;;;;0.70;99.90;;;;;;5072730;28;19938;-81
2021/12/23 12:29:04;;;;;;;;;;;0.80;99.90;;;;;;5071557;28;19920;-80
2021/12/23 12:31:37;;;;;;;;;;;0.70;99.90;;;;;;5071241;28;19920;-81
2021/12/23 12:34:12;;;;;;;;;;;0.60;99.90;;;;;;5052106;28;19924;-86
2021/12/23 12:36:43;;;;;;;;;;;0.60;99.90;;;;;;5066963;28;20012;-83
2021/12/23 12:39:09;;;;;;;;;;;0.60;99.90;;;;;;5080034;28;20397;-85
2021/12/23 12:41:35;;;;;;;;;;;0.60;99.90;;;;;;5054659;28;19969;-78
2021/12/23 12:44:06;;;;;;;;;;;0.60;99.90;;;;;;5062851;28;19976;-85
2021/12/23 12:46:48;;;;;;;;;;;0.70;99.90;;;;;;5084210;28;20289;-88
2021/12/23 12:49:22;;;;;;;;;;;0.80;99.90;;;;;;5053613;28;19924;-84
2021/12/23 12:51:48;;;;;;;;;;;0.80;99.90;;;;;;5057986;28;19981;-85
2021/12/23 12:54:34;;;;;;;;;;;0.80;99.90;;;;;;5091923;28;19923;-78
2021/12/23 12:57:02;;;;;;;;;;;0.70;99.90;;;;;;5084417;28;19998;-87
2021/12/23 12:59:29;;;;;;;;;;;0.90;99.90;;;;;;5068831;28;19942;-89
2021/12/23 13:01:55;;;;;;;;;;;0.80;99.90;;;;;;5088800;28;19930;-86
2021/12/23 13:04:30;;;;;;;;;;;0.70;99.90;;;;;;5097425;28;19927;-85
2021/12/23 13:06:57;;;;;;;;;;;0.60;99.90;;;;;;5077562;28;19929;-79
2021/12/23 13:09:30;;;;;;;;;;;0.80;99.90;;;;;;5079601;28;20352;-75
2021/12/23 13:11:58;;;;;;;;;;;0.80;99.90;;;;;;5079700;28;19924;-84
2021/12/23 13:14:44;;;;;;;;;;;0.60;99.90;;;;;;5074902;28;19920;-85
2021/12/23 13:17:09;;;;;;;;;;;0.70;99.90;;;;;;5055766;28;19921;-84
2021/12/23 13:19:35;;;;;;;;;;;0.70;99.90;;;;;;5073328;28;20277;-83
2021/12/23 13:22:05;;;;;;;;;;;0.80;99.90;;;;;;5060134;28;19923;-83
2021/12/23 13:24:32;;;;;;;;;;;0.80;99.90;;;;;;5056564;28;19924;-83
2021/12/23 13:26:58;;;;;;;;;;;0.70;99.90;;;;;;5067205;28;19924;-83
2021/12/23 13:29:28;;;;;;;;;;;0.80;99.90;;;;;;5056982;28;19920;-83
2021/12/23 13:31:54;;;;;;;;;;;0.80;99.90;;;;;;5084547;28;19924;-70
2021/12/23 13:34:24;;;;;;;;;;;0.60;99.90;;;;;;5087626;28;20392;-82
2021/12/23 13:36:54;;;;;;;;;;;0.80;99.90;;;;;;5060207;28;19921;-83
2021/12/23 13:39:22;;;;;;;;;;;0.80;99.90;;;;;;5059680;28;19920;-84
2021/12/23 13:41:53;;;;;;;;;;;0.70;99.90;;;;;;5060070;28;20262;-77
2021/12/23 13:44:21;;;;;;;;;;;1.00;99.90;;;;;;5067128;28;20321;-84
2021/12/23 13:47:04;;;;;;;;;;;0.90;99.90;;;;;;5062191;28;19939;-82
2021/12/23 13:49:31;;;;;;;;;;;0.70;99.90;;;;;;5086005;28;20015;-82
2021/12/23 13:51:56;;;;;;;;;;;0.90;99.90;;;;;;5079071;28;19920;-83
2021/12/23 13:54:22;;;;;;;;;;;0.90;99.90;;;;;;5036309;28;19927;-83
2021/12/23 13:56:49;;;;;;;;;;;0.80;99.90;;;;;;5068292;28;19921;-84
2021/12/23 13:59:18;;;;;;;;;;;0.80;99.90;;;;;;5065363;28;19931;-81
2021/12/23 14:01:49;;;;;;;;;;;0.80;99.90;;;;;;5068208;28;19920;-81
2021/12/23 14:04:34;;;;;;;;;;;1.00;99.90;;;;;;5081811;28;19920;-82
2021/12/23 14:07:00;;;;;;;;;;;0.80;99.90;;;;;;5063054;28;19943;-80
2021/12/23 14:09:29;;;;;;;;;;;0.90;99.90;;;;;;5056431;28;20359;-81
2021/12/23 14:11:55;;;;;;;;;;;0.70;99.90;;;;;;5069714;28;19924;-79
2021/12/23 14:14:20;;;;;;;;;;;0.90;99.90;;;;;;5061745;28;19920;-79
2021/12/23 14:16:46;;;;;;;;;;;0.80;99.90;;;;;;5050351;28;19933;-79
2021/12/23 14:19:24;;;;;;;;;;;0.90;99.90;;;;;;5061763;28;19977;-79
2021/12/23 14:24:34;;;;;;;;;;;0.90;99.90;;;;;;5079776;28;20003;-81
2021/12/23 14:27:00;;;;;;;;;;;1.00;99.90;;;;;;5058200;28;19960;-80
2021/12/23 14:29:30;;;;;;;;;;;0.70;99.90;;;;;;5073532;28;19927;-80
2021/12/23 14:31:56;;;;;;;;;;;0.80;99.90;;;;;;5050780;28;20424;-79
2021/12/23 14:34:24;;;;;;;;;;;0.90;99.90;;;;;;5059973;28;19932;-80
2021/12/23 14:36:54;;;;;;;;;;;0.90;99.90;;;;;;5062954;28;19920;-78
2021/12/23 14:39:27;;;;;;;;;;;0.80;99.90;;;;;;5061367;28;20373;-81
2021/12/23 14:41:55;;;;;;;;;;;0.70;99.90;;;;;;5062662;28;19924;-80
2021/12/23 14:44:21;;;;;;;;;;;0.90;99.90;;;;;;5068173;28;19990;-80
2021/12/23 14:46:49;;;;;;;;;;;0.80;99.90;;;;;;5041015;28;20282;-86
2021/12/23 14:52:24;;;;;;;;;;;0.90;99.90;;;;;;5060229;28;19927;-84
2021/12/23 14:54:50;;;;;;;;;;;0.80;99.90;;;;;;5067128;28;19927;-83
2021/12/23 14:57:16;;;;;;;;;;;1.00;99.90;;;;;;5077684;28;19924;-81
2021/12/23 14:59:50;;;;;;;;;;;1.00;99.90;;;;;;5062564;28;20406;-80
2021/12/23 15:02:17;;;;;;;;;;;1.00;99.90;;;;;;5048750;28;19924;-83
2021/12/23 15:05:02;;;;;;;;;;;1.00;99.90;;;;;;5054968;28;19927;-73
2021/12/23 15:07:43;;;;;;;;;;;0.80;99.90;;;;;;5047185;28;20445;-83
2021/12/23 15:10:09;;;;;;;;;;;0.90;99.90;;;;;;5079923;28;19974;-81
2021/12/23 15:12:35;;;;;;;;;;;0.80;99.90;;;;;;5058824;28;19924;-82